sensor_id;sensor_type;location;lat;lon;timestamp;temperature;humidity
14000;DHT22;7075;53.574;10.054;2022-08-20T00:06:22;20.90;99.90
14000;DHT22;7075;53.574;10.054;2022-08-20T00:08:49;20.90;99.90
14000;DHT22;7075;53.574;10.054;2022-08-20T00:11:18;20.90;99.90
14000;DHT22;7075;53.574;10.054;2022-08-20T00:13:48;20.90;99.90
14000;DHT22;7075;53.574;10.054;2022-08-20T00:16:16;20.90;99.90
14000;DHT22;7075;53.574;10.054;2022-08-20T00:18:42;20.90;99.90
14000;DHT22;7075;53.574;10.054;2022-08-20T00:21:10;20.90;99.90
14000;DHT22;7075;53.574;10.054;2022-08-20T00:23:37;20.90;99.90
14000;DHT22;7075;53.574;10.054;2022-08-20T00:26:04;20.90;99.90
14000;DHT22;7075;53.574;10.054;2022-08-20T00:28:30;20.90;99.90
14000;DHT22;7075;53.574;10.054;2022-08-20T00:30:55;20.90;99.90
14000;DHT22;7075;53.574;10.054;2022-08-20T00:33:22;20.90;99.90
14000;DHT22;7075;53.574;10.054;2022-08-20T00:35:53;20.90;99.90
14000;DHT22;7075;53.574;10.054;2022-08-20T00:38:21;20.80;99.90
14000;DHT22;7075;53.574;10.054;2022-08-20T00:40:54;20.80;99.90
14000;DHT22;7075;53.574;10.054;2022-08-20T00:43:44;20.90;99.90
14000;DHT22;7075;53.574;10.054;2022-08-20T00:46:25;20.90;99.90
14000;DHT22;7075;53.574;10.054;2022-08-20T00:48:53;20.90;99.90
14000;DHT22;7075;53.574;10.054;2022-08-20T00:53:57;20.90;99.90
14000;DHT22;7075;53.574;10.054;2022-08-20T00:56:23;20.80;99.90
14000;DHT22;7075;53.574;10.054;2022-08-20T00:58:51;20.80;99.90
14000;DHT22;7075;53.574;10.054;2022-08-20T01:01:16;20.80;99.90
14000;DHT22;7075;53.574;10.054;2022-08-20T01:03:43;20.80;99.90
14000;DHT22;7075;53.574;10.054;2022-08-20T01:06:09;20.80;99.90
14000;DHT22;7075;53.574;10.054;2022-08-20T01:08:37;20.80;99.90
14000;DHT22;7075;53.574;10.054;2022-08-20T01:11:04;20.80;99.90
14000;DHT22;7075;53.574;10.054;2022-08-20T01:13:36;20.80;99.90
14000;DHT22;7075;53.574;10.054;2022-08-20T01:16:06;20.80;99.90
14000;DHT22;7075;53.574;10.054;2022-08-20T01:18:35;20.80;99.90
14000;DHT22;7075;53.574;10.054;2022-08-20T01:21:03;20.80;99.90
14000;DHT22;7075;53.574;10.054;2022-08-20T01:24:16;20.80;99.90
14000;DHT22;7075;53.574;10.054;2022-08-20T01:26:46;20.80;99.90
14000;DHT22;7075;53.574;10.054;2022-08-20T01:29:16;20.80;99.90
14000;DHT22;7075;53.574;10.054;2022-08-20T01:31:43;20.70;99.90
14000;DHT22;7075;53.574;10.054;2022-08-20T01:34:12;20.70;99.90
14000;DHT22;7075;53.574;10.054;2022-08-20T01:36:42;20.70;99.90
14000;DHT22;7075;53.574;10.054;2022-08-20T01:39:10;20.70;99.90
14000;DHT22;7075;53.574;10.054;2022-08-20T01:42:13;20.60;99.90
14000;DHT22;7075;53.574;10.054;2022-08-20T01:44:43;20.60;99.90
14000;DHT22;7075;53.574;10.054;2022-08-20T01:47:17;20.60;99.90
14000;DHT22;7075;53.574;10.054;2022-08-20T01:49:46;20.50;99.90
14000;DHT22;7075;53.574;10.054;2022-08-20T01:52:21;20.50;99.90
14000;DHT22;7075;53.574;10.054;2022-08-20T01:54:48;20.60;99.90
14000;DHT22;7075;53.574;10.054;2022-08-20T01:57:16;20.50;99.90
14000;DHT22;7075;53.574;10.054;2022-08-20T01:59:43;20.50;99.90
14000;DHT22;7075;53.574;10.054;2022-08-20T02:02:10;20.50;99.90
14000;DHT22;7075;53.574;10.054;2022-08-20T02:04:36;20.50;99.90
14000;DHT22;7075;53.574;10.054;2022-08-20T02:07:04;20.50;99.90
14000;DHT22;7075;53.574;10.054;2022-08-20T02:09:33;20.50;99.90
14000;DHT22;7075;53.574;10.054;2022-08-20T02:12:00;20.50;99.90
14000;DHT22;7075;53.574;10.054;2022-08-20T02:14:28;20.50;99.90
14000;DHT22;7075;53.574;10.054;2022-08-20T02:16:54;20.60;99.90
14000;DHT22;7075;53.574;10.054;2022-08-20T02:19:30;20.50;99.90
14000;DHT22;7075;53.574;10.054;2022-08-20T02:22:00;20.50;99.90
14000;DHT22;7075;53.574;10.054;2022-08-20T02:24:26;20.50;99.90
14000;DHT22;7075;53.574;10.054;2022-08-20T02:26:52;20.40;99.90
14000;DHT22;7075;53.574;10.054;2022-08-20T02:29:18;20.40;99.90
14000;DHT22;7075;53.574;10.054;2022-08-20T02:31:45;20.50;99.90
14000;DHT22;7075;53.574;10.054;2022-08-20T02:34:11;20.50;99.90
14000;DHT22;7075;53.574;10.054;2022-08-20T02:36:38;20.50;99.90
14000;DHT22;7075;53.574;10.054;2022-08-20T02:39:09;20.50;99.90
14000;DHT22;7075;53.574;10.054;2022-08-20T02:41:36;20.50;99.90
14000;DHT22;7075;53.574;10.054;2022-08-20T02:44:04;20.50;99.90
14000;DHT22;7075;53.574;10.054;2022-08-20T02:46:30;20.50;99.90
14000;DHT22;7075;53.574;10.054;2022-08-20T02:48:56;20.50;99.90
14000;DHT22;7075;53.574;10.054;2022-08-20T02:51:22;20.50;99.90
14000;DHT22;7075;53.574;10.054;2022-08-20T02:53:47;20.50;99.90
14000;DHT22;7075;53.574;10.054;2022-08-20T02:56:13;20.50;99.90
14000;DHT22;7075;53.574;10.054;2022-08-20T02:58:39;20.40;99.90
14000;DHT22;7075;53.574;10.054;2022-08-20T03:01:07;20.50;99.90
14000;DHT22;7075;53.574;10.054;2022-08-20T03:03:33;20.50;99.90
14000;DHT22;7075;53.574;10.054;2022-08-20T03:05:59;20.50;99.90
14000;DHT22;7075;53.574;10.054;2022-08-20T03:08:26;20.40;99.90
14000;DHT22;7075;53.574;10.054;2022-08-20T03:10:54;20.40;99.90
14000;DHT22;7075;53.574;10.054;2022-08-20T03:13:21;20.30;99.90
14000;DHT22;7075;53.574;10.054;2022-08-20T03:15:50;20.30;99.90
14000;DHT22;7075;53.574;10.054;2022-08-20T03:18:17;20.30;99.90
14000;DHT22;7075;53.574;10.054;2022-08-20T03:20:44;20.30;99.90
14000;DHT22;7075;53.574;10.054;2022-08-20T03:23:10;20.40;99.90
14000;DHT22;7075;53.574;10.054;2022-08-20T03:25:36;20.30;99.90
14000;DHT22;7075;53.574;10.054;2022-08-20T03:28:01;20.30;99.90
14000;DHT22;7075;53.574;10.054;2022-08-20T03:30:28;20.30;99.90
14000;DHT22;7075;53.574;10.054;2022-08-20T03:32:54;20.30;99.90
14000;DHT22;7075;53.574;10.054;2022-08-20T03:35:21;20.30;99.90
14000;DHT22;7075;53.574;10.054;2022-08-20T03:37:47;20.30;99.90
14000;DHT22;7075;53.574;10.054;2022-08-20T03:40:16;20.30;99.90
14000;DHT22;7075;53.574;10.054;2022-08-20T03:42:42;20.40;99.90
14000;DHT22;7075;53.574;10.054;2022-08-20T03:45:11;20.40;99.90
14000;DHT22;7075;53.574;10.054;2022-08-20T03:47:40;20.40;99.90
14000;DHT22;7075;53.574;10.054;2022-08-20T03:50:08;20.40;99.90
14000;DHT22;7075;53.574;10.054;2022-08-20T03:52:35;20.30;99.90
14000;DHT22;7075;53.574;10.054;2022-08-20T03:55:01;20.30;99.90
14000;DHT22;7075;53.574;10.054;2022-08-20T03:57:26;20.30;99.90
14000;DHT22;7075;53.574;10.054;2022-08-20T03:59:53;20.30;99.90
14000;DHT22;7075;53.574;10.054;2022-08-20T04:02:19;20.30;99.90
14000;DHT22;7075;53.574;10.054;2022-08-20T04:04:44;20.30;99.90
14000;DHT22;7075;53.574;10.054;2022-08-20T04:07:16;20.20;99.90
14000;DHT22;7075;53.574;10.054;2022-08-20T04:09:43;20.20;99.90
14000;DHT22;7075;53.574;10.054;2022-08-20T04:12:09;20.20;99.90
14000;DHT22;7075;53.574;10.054;2022-08-20T04:14:37;20.20;99.90
14000;DHT22;7075;53.574;10.054;2022-08-20T04:17:06;20.20;99.90
14000;DHT22;7075;53.574;10.054;2022-08-20T04:19:32;20.20;99.90
14000;DHT22;7075;53.574;10.054;2022-08-20T04:21:58;20.30;99.90
14000;DHT22;7075;53.574;10.054;2022-08-20T04:24:24;20.30;99.90
14000;DHT22;7075;53.574;10.054;2022-08-20T04:26:51;20.30;99.90
14000;DHT22;7075;53.574;10.054;2022-08-20T04:29:16;20.40;99.90
14000;DHT22;7075;53.574;10.054;2022-08-20T04:31:42;20.40;99.90
14000;DHT22;7075;53.574;10.054;2022-08-20T04:34:08;20.30;99.90
14000;DHT22;7075;53.574;10.054;2022-08-20T04:36:33;20.20;99.90
14000;DHT22;7075;53.574;10.054;2022-08-20T04:39:02;20.30;99.90
14000;DHT22;7075;53.574;10.054;2022-08-20T04:41:28;20.20;99.90
14000;DHT22;7075;53.574;10.054;2022-08-20T04:43:55;20.20;99.90
14000;DHT22;7075;53.574;10.054;2022-08-20T04:46:22;20.10;99.90
14000;DHT22;7075;53.574;10.054;2022-08-20T04:48:49;20.10;99.90
14000;DHT22;7075;53.574;10.054;2022-08-20T04:51:15;20.20;99.90
14000;DHT22;7075;53.574;10.054;2022-08-20T04:53:41;20.20;99.90
14000;DHT22;7075;53.574;10.054;2022-08-20T04:56:07;20.20;99.90
14000;DHT22;7075;53.574;10.054;2022-08-20T04:58:35;20.10;99.90
14000;DHT22;7075;53.574;10.054;2022-08-20T05:01:07;20.20;99.90
14000;DHT22;7075;53.574;10.054;2022-08-20T05:03:34;20.10;99.90
14000;DHT22;7075;53.574;10.054;2022-08-20T05:06:00;20.10;99.90
14000;DHT22;7075;53.574;10.054;2022-08-20T05:08:28;20.10;99.90
14000;DHT22;7075;53.574;10.054;2022-08-20T05:10:54;20.00;99.90
14000;DHT22;7075;53.574;10.054;2022-08-20T05:13:20;20.00;99.90
14000;DHT22;7075;53.574;10.054;2022-08-20T05:15:46;20.00;99.90
14000;DHT22;7075;53.574;10.054;2022-08-20T05:18:14;20.00;99.90
14000;DHT22;7075;53.574;10.054;2022-08-20T05:20:41;20.00;99.90
14000;DHT22;7075;53.574;10.054;2022-08-20T05:23:09;19.90;99.90
14000;DHT22;7075;53.574;10.054;2022-08-20T05:25:35;19.90;99.90
14000;DHT22;7075;53.574;10.054;2022-08-20T05:28:05;20.00;99.90
14000;DHT22;7075;53.574;10.054;2022-08-20T05:30:35;20.00;99.90
14000;DHT22;7075;53.574;10.054;2022-08-20T05:33:03;20.00;99.90
14000;DHT22;7075;53.574;10.054;2022-08-20T05:35:30;20.00;99.90
14000;DHT22;7075;53.574;10.054;2022-08-20T05:37:58;20.00;99.90
14000;DHT22;7075;53.574;10.054;2022-08-20T05:40:25;19.90;99.90
14000;DHT22;7075;53.574;10.054;2022-08-20T05:42:51;19.90;99.90
14000;DHT22;7075;53.574;10.054;2022-08-20T05:45:18;19.90;99.90
14000;DHT22;7075;53.574;10.054;2022-08-20T05:47:44;20.00;99.90
14000;DHT22;7075;53.574;10.054;2022-08-20T05:50:11;20.10;99.90
14000;DHT22;7075;53.574;10.054;2022-08-20T05:52:40;20.10;99.90
14000;DHT22;7075;53.574;10.054;2022-08-20T05:55:09;20.10;99.90
14000;DHT22;7075;53.574;10.054;2022-08-20T05:57:35;20.20;99.90
14000;DHT22;7075;53.574;10.054;2022-08-20T06:00:04;20.20;99.90
14000;DHT22;7075;53.574;10.054;2022-08-20T06:02:30;20.20;99.90
14000;DHT22;7075;53.574;10.054;2022-08-20T06:05:14;20.20;99.90
14000;DHT22;7075;53.574;10.054;2022-08-20T06:07:40;20.20;99.90
14000;DHT22;7075;53.574;10.054;2022-08-20T06:10:07;20.20;99.90
14000;DHT22;7075;53.574;10.054;2022-08-20T06:12:33;20.10;99.90
14000;DHT22;7075;53.574;10.054;2022-08-20T06:14:59;20.10;99.90
14000;DHT22;7075;53.574;10.054;2022-08-20T06:17:25;20.10;99.90
14000;DHT22;7075;53.574;10.054;2022-08-20T06:19:51;20.10;99.90
14000;DHT22;7075;53.574;10.054;2022-08-20T06:22:17;20.20;99.90
14000;DHT22;7075;53.574;10.054;2022-08-20T06:24:42;20.20;99.90
14000;DHT22;7075;53.574;10.054;2022-08-20T06:27:12;20.20;99.90
14000;DHT22;7075;53.574;10.054;2022-08-20T06:29:39;20.10;99.90
14000;DHT22;7075;53.574;10.054;2022-08-20T06:32:04;20.10;99.90
14000;DHT22;7075;53.574;10.054;2022-08-20T06:34:30;20.10;99.90
14000;DHT22;7075;53.574;10.054;2022-08-20T06:36:56;20.10;99.90
14000;DHT22;7075;53.574;10.054;2022-08-20T06:39:23;20.10;99.90
14000;DHT22;7075;53.574;10.054;2022-08-20T06:41:50;20.10;99.90
14000;DHT22;7075;53.574;10.054;2022-08-20T06:44:16;20.20;99.90
14000;DHT22;7075;53.574;10.054;2022-08-20T06:46:42;20.20;99.90
14000;DHT22;7075;53.574;10.054;2022-08-20T06:49:08;20.20;99.90
14000;DHT22;7075;53.574;10.054;2022-08-20T06:51:34;20.20;99.90
14000;DHT22;7075;53.574;10.054;2022-08-20T06:54:02;20.20;99.90
14000;DHT22;7075;53.574;10.054;2022-08-20T06:56:28;20.30;99.90
14000;DHT22;7075;53.574;10.054;2022-08-20T06:58:54;20.40;99.90
14000;DHT22;7075;53.574;10.054;2022-08-20T07:01:19;20.50;99.90
14000;DHT22;7075;53.574;10.054;2022-08-20T07:03:46;20.50;99.90
14000;DHT22;7075;53.574;10.054;2022-08-20T07:06:13;20.60;99.90
14000;DHT22;7075;53.574;10.054;2022-08-20T07:08:40;20.70;99.90
14000;DHT22;7075;53.574;10.054;2022-08-20T07:11:06;20.70;99.90
14000;DHT22;7075;53.574;10.054;2022-08-20T07:13:32;20.70;99.90
14000;DHT22;7075;53.574;10.054;2022-08-20T07:15:57;20.70;99.90
14000;DHT22;7075;53.574;10.054;2022-08-20T07:18:23;20.80;99.90
14000;DHT22;7075;53.574;10.054;2022-08-20T07:20:49;20.80;99.90
14000;DHT22;7075;53.574;10.054;2022-08-20T07:23:15;20.80;99.90
14000;DHT22;7075;53.574;10.054;2022-08-20T07:25:42;20.80;99.90
14000;DHT22;7075;53.574;10.054;2022-08-20T07:28:18;20.90;99.90
14000;DHT22;7075;53.574;10.054;2022-08-20T07:30:44;20.90;99.90
14000;DHT22;7075;53.574;10.054;2022-08-20T07:33:29;21.00;99.90
14000;DHT22;7075;53.574;10.054;2022-08-20T07:36:00;21.10;99.90
14000;DHT22;7075;53.574;10.054;2022-08-20T07:38:28;21.20;99.90
14000;DHT22;7075;53.574;10.054;2022-08-20T07:41:03;21.20;99.90
14000;DHT22;7075;53.574;10.054;2022-08-20T07:43:29;21.20;99.90
14000;DHT22;7075;53.574;10.054;2022-08-20T07:45:57;21.30;99.90
14000;DHT22;7075;53.574;10.054;2022-08-20T07:48:27;21.40;99.90
14000;DHT22;7075;53.574;10.054;2022-08-20T07:50:57;21.50;99.90
14000;DHT22;7075;53.574;10.054;2022-08-20T07:53:24;21.60;99.90
14000;DHT22;7075;53.574;10.054;2022-08-20T07:55:49;21.50;99.90
14000;DHT22;7075;53.574;10.054;2022-08-20T07:58:20;21.50;99.90
14000;DHT22;7075;53.574;10.054;2022-08-20T08:00:47;21.40;99.90
14000;DHT22;7075;53.574;10.054;2022-08-20T08:03:13;21.40;99.90
14000;DHT22;7075;53.574;10.054;2022-08-20T08:05:41;21.30;99.90
14000;DHT22;7075;53.574;10.054;2022-08-20T08:08:10;21.40;99.90
14000;DHT22;7075;53.574;10.054;2022-08-20T08:10:37;21.30;99.90
14000;DHT22;7075;53.574;10.054;2022-08-20T08:13:05;21.40;99.90
14000;DHT22;7075;53.574;10.054;2022-08-20T08:15:33;21.50;99.90
14000;DHT22;7075;53.574;10.054;2022-08-20T08:18:06;21.40;99.90
14000;DHT22;7075;53.574;10.054;2022-08-20T08:20:38;21.50;99.90
14000;DHT22;7075;53.574;10.054;2022-08-20T08:23:07;21.50;99.90
14000;DHT22;7075;53.574;10.054;2022-08-20T08:25:35;21.60;99.90
14000;DHT22;7075;53.574;10.054;2022-08-20T08:28:01;21.70;99.90
14000;DHT22;7075;53.574;10.054;2022-08-20T08:30:27;21.80;99.90
14000;DHT22;7075;53.574;10.054;2022-08-20T08:32:53;21.80;99.90
14000;DHT22;7075;53.574;10.054;2022-08-20T08:38:29;21.60;99.90
14000;DHT22;7075;53.574;10.054;2022-08-20T08:40:56;21.80;99.90
14000;DHT22;7075;53.574;10.054;2022-08-20T08:43:25;21.90;99.90
14000;DHT22;7075;53.574;10.054;2022-08-20T08:46:05;22.00;99.90
14000;DHT22;7075;53.574;10.054;2022-08-20T08:48:39;22.10;99.90
14000;DHT22;7075;53.574;10.054;2022-08-20T08:51:11;22.30;99.90
14000;DHT22;7075;53.574;10.054;2022-08-20T08:53:43;22.30;99.90
14000;DHT22;7075;53.574;10.054;2022-08-20T08:56:13;22.20;99.90
14000;DHT22;7075;53.574;10.054;2022-08-20T08:58:41;22.20;99.90
14000;DHT22;7075;53.574;10.054;2022-08-20T09:01:17;22.40;99.90
14000;DHT22;7075;53.574;10.054;2022-08-20T09:03:45;22.30;99.90
14000;DHT22;7075;53.574;10.054;2022-08-20T09:06:18;22.30;99.90
14000;DHT22;7075;53.574;10.054;2022-08-20T09:09:04;22.20;99.90
14000;DHT22;7075;53.574;10.054;2022-08-20T09:11:30;22.20;99.90
14000;DHT22;7075;53.574;10.054;2022-08-20T09:14:02;22.20;99.90
14000;DHT22;7075;53.574;10.054;2022-08-20T09:16:27;22.30;99.90
14000;DHT22;7075;53.574;10.054;2022-08-20T09:18:53;22.30;99.90
14000;DHT22;7075;53.574;10.054;2022-08-20T09:21:19;22.40;99.90
14000;DHT22;7075;53.574;10.054;2022-08-20T09:23:44;22.50;99.90
14000;DHT22;7075;53.574;10.054;2022-08-20T09:26:25;22.50;99.90
14000;DHT22;7075;53.574;10.054;2022-08-20T09:28:50;22.50;99.90
14000;DHT22;7075;53.574;10.054;2022-08-20T09:31:16;22.50;99.90
14000;DHT22;7075;53.574;10.054;2022-08-20T09:33:42;22.50;99.90
14000;DHT22;7075;53.574;10.054;2022-08-20T09:36:08;22.60;99.90
14000;DHT22;7075;53.574;10.054;2022-08-20T09:38:33;22.60;99.90
14000;DHT22;7075;53.574;10.054;2022-08-20T09:40:59;22.70;99.90
14000;DHT22;7075;53.574;10.054;2022-08-20T09:43:25;22.80;99.90
14000;DHT22;7075;53.574;10.054;2022-08-20T09:45:50;22.60;99.90
14000;DHT22;7075;53.574;10.054;2022-08-20T09:48:16;22.60;99.90
14000;DHT22;7075;53.574;10.054;2022-08-20T09:50:45;22.60;99.90
14000;DHT22;7075;53.574;10.054;2022-08-20T09:53:12;22.70;99.90
14000;DHT22;7075;53.574;10.054;2022-08-20T09:55:41;22.80;99.90
14000;DHT22;7075;53.574;10.054;2022-08-20T09:58:32;22.90;99.90
14000;DHT22;7075;53.574;10.054;2022-08-20T10:01:09;23.00;99.90
14000;DHT22;7075;53.574;10.054;2022-08-20T10:03:35;22.90;99.90
14000;DHT22;7075;53.574;10.054;2022-08-20T10:06:01;23.00;99.90
14000;DHT22;7075;53.574;10.054;2022-08-20T10:08:27;22.90;99.90
14000;DHT22;7075;53.574;10.054;2022-08-20T10:10:53;23.00;99.90
14000;DHT22;7075;53.574;10.054;2022-08-20T10:13:18;23.10;99.90
14000;DHT22;7075;53.574;10.054;2022-08-20T10:15:44;23.10;99.90
14000;DHT22;7075;53.574;10.054;2022-08-20T10:18:09;23.10;99.90
14000;DHT22;7075;53.574;10.054;2022-08-20T10:20:35;23.00;99.90
14000;DHT22;7075;53.574;10.054;2022-08-20T10:23:01;23.00;99.90
14000;DHT22;7075;53.574;10.054;2022-08-20T10:25:27;23.10;99.90
14000;DHT22;7075;53.574;10.054;2022-08-20T10:27:53;23.30;99.90
14000;DHT22;7075;53.574;10.054;2022-08-20T10:30:19;23.30;99.90
14000;DHT22;7075;53.574;10.054;2022-08-20T10:32:45;23.30;99.90
14000;DHT22;7075;53.574;10.054;2022-08-20T10:35:11;23.30;99.90
14000;DHT22;7075;53.574;10.054;2022-08-20T10:37:36;23.30;99.90
14000;DHT22;7075;53.574;10.054;2022-08-20T10:40:03;23.30;99.90
14000;DHT22;7075;53.574;10.054;2022-08-20T10:42:29;23.50;99.90
14000;DHT22;7075;53.574;10.054;2022-08-20T10:44:54;23.50;99.90
14000;DHT22;7075;53.574;10.054;2022-08-20T10:47:25;23.50;99.90
14000;DHT22;7075;53.574;10.054;2022-08-20T10:49:52;23.40;99.90
14000;DHT22;7075;53.574;10.054;2022-08-20T10:52:18;23.40;99.90
14000;DHT22;7075;53.574;10.054;2022-08-20T10:54:44;23.50;99.90
14000;DHT22;7075;53.574;10.054;2022-08-20T10:57:25;23.60;99.90
14000;DHT22;7075;53.574;10.054;2022-08-20T10:59:53;23.50;99.90
14000;DHT22;7075;53.574;10.054;2022-08-20T11:02:20;23.40;99.90
14000;DHT22;7075;53.574;10.054;2022-08-20T11:04:46;23.40;99.90
14000;DHT22;7075;53.574;10.054;2022-08-20T11:07:28;23.30;99.90
14000;DHT22;7075;53.574;10.054;2022-08-20T11:09:55;23.20;99.90
14000;DHT22;7075;53.574;10.054;2022-08-20T11:12:22;23.30;99.90
14000;DHT22;7075;53.574;10.054;2022-08-20T11:14:48;23.40;99.90
14000;DHT22;7075;53.574;10.054;2022-08-20T11:17:31;23.50;99.90
14000;DHT22;7075;53.574;10.054;2022-08-20T11:19:58;23.50;99.90
14000;DHT22;7075;53.574;10.054;2022-08-20T11:22:24;23.50;99.90
14000;DHT22;7075;53.574;10.054;2022-08-20T11:24:51;23.50;99.90
14000;DHT22;7075;53.574;10.054;2022-08-20T11:27:27;23.40;99.90
14000;DHT22;7075;53.574;10.054;2022-08-20T11:29:53;23.40;99.90
14000;DHT22;7075;53.574;10.054;2022-08-20T11:32:19;23.40;99.90
14000;DHT22;7075;53.574;10.054;2022-08-20T11:34:45;23.40;99.90
14000;DHT22;7075;53.574;10.054;2022-08-20T11:37:12;23.40;99.90
14000;DHT22;7075;53.574;10.054;2022-08-20T11:39:38;23.50;99.90
14000;DHT22;7075;53.574;10.054;2022-08-20T11:42:04;23.50;99.90
14000;DHT22;7075;53.574;10.054;2022-08-20T11:44:30;23.60;99.90
14000;DHT22;7075;53.574;10.054;2022-08-20T11:46:59;23.60;99.90
14000;DHT22;7075;53.574;10.054;2022-08-20T11:49:27;23.70;99.90
14000;DHT22;7075;53.574;10.054;2022-08-20T11:51:53;23.70;99.90
14000;DHT22;7075;53.574;10.054;2022-08-20T11:54:19;23.80;99.90
14000;DHT22;7075;53.574;10.054;2022-08-20T11:56:44;24.00;99.90
14000;DHT22;7075;53.574;10.054;2022-08-20T11:59:10;24.00;99.90
14000;DHT22;7075;53.574;10.054;2022-08-20T12:01:35;23.90;99.90
14000;DHT22;7075;53.574;10.054;2022-08-20T12:04:01;23.90;99.90
14000;DHT22;7075;53.574;10.054;2022-08-20T12:06:27;24.00;99.90
14000;DHT22;7075;53.574;10.054;2022-08-20T12:08:52;24.20;99.90
14000;DHT22;7075;53.574;10.054;2022-08-20T12:11:18;24.50;99.90
14000;DHT22;7075;53.574;10.054;2022-08-20T12:13:44;24.40;99.90
14000;DHT22;7075;53.574;10.054;2022-08-20T12:16:10;24.40;99.90
14000;DHT22;7075;53.574;10.054;2022-08-20T12:18:35;24.50;99.90
14000;DHT22;7075;53.574;10.054;2022-08-20T12:21:01;24.50;99.90
14000;DHT22;7075;53.574;10.054;2022-08-20T12:23:26;24.70;99.90
14000;DHT22;7075;53.574;10.054;2022-08-20T12:25:52;25.20;99.90
14000;DHT22;7075;53.574;10.054;2022-08-20T12:28:18;25.30;99.90
14000;DHT22;7075;53.574;10.054;2022-08-20T12:30:43;25.30;99.90
14000;DHT22;7075;53.574;10.054;2022-08-20T12:33:09;25.40;99.90
14000;DHT22;7075;53.574;10.054;2022-08-20T12:35:35;25.60;99.90
14000;DHT22;7075;53.574;10.054;2022-08-20T12:38:04;25.90;99.90
14000;DHT22;7075;53.574;10.054;2022-08-20T12:40:31;25.80;99.90
14000;DHT22;7075;53.574;10.054;2022-08-20T12:42:57;25.70;99.90
14000;DHT22;7075;53.574;10.054;2022-08-20T12:45:22;25.60;99.90
14000;DHT22;7075;53.574;10.054;2022-08-20T12:47:48;25.60;99.90
14000;DHT22;7075;53.574;10.054;2022-08-20T12:50:21;25.60;99.90
14000;DHT22;7075;53.574;10.054;2022-08-20T12:52:47;25.30;99.90
14000;DHT22;7075;53.574;10.054;2022-08-20T12:55:15;25.30;99.90
14000;DHT22;7075;53.574;10.054;2022-08-20T12:57:49;25.30;99.90
14000;DHT22;7075;53.574;10.054;2022-08-20T13:00:23;25.60;99.90
14000;DHT22;7075;53.574;10.054;2022-08-20T13:02:50;25.90;99.90
14000;DHT22;7075;53.574;10.054;2022-08-20T13:05:16;26.00;99.90
14000;DHT22;7075;53.574;10.054;2022-08-20T13:07:43;25.90;99.90
14000;DHT22;7075;53.574;10.054;2022-08-20T13:10:12;26.10;99.90
14000;DHT22;7075;53.574;10.054;2022-08-20T13:12:39;26.00;99.90
14000;DHT22;7075;53.574;10.054;2022-08-20T13:15:05;26.00;99.90
14000;DHT22;7075;53.574;10.054;2022-08-20T13:17:31;25.90;99.90
14000;DHT22;7075;53.574;10.054;2022-08-20T13:19:56;26.10;99.90
14000;DHT22;7075;53.574;10.054;2022-08-20T13:22:22;26.60;99.90
14000;DHT22;7075;53.574;10.054;2022-08-20T13:24:48;26.50;99.90
14000;DHT22;7075;53.574;10.054;2022-08-20T13:27:16;26.40;99.90
14000;DHT22;7075;53.574;10.054;2022-08-20T13:29:51;26.70;99.90
14000;DHT22;7075;53.574;10.054;2022-08-20T13:32:18;26.70;99.90
14000;DHT22;7075;53.574;10.054;2022-08-20T13:34:44;27.00;99.90
14000;DHT22;7075;53.574;10.054;2022-08-20T13:37:13;27.30;99.90
14000;DHT22;7075;53.574;10.054;2022-08-20T13:39:40;27.50;99.90
14000;DHT22;7075;53.574;10.054;2022-08-20T13:42:07;27.00;99.90
14000;DHT22;7075;53.574;10.054;2022-08-20T13:44:33;26.80;99.90
14000;DHT22;7075;53.574;10.054;2022-08-20T13:46:59;26.50;99.90
14000;DHT22;7075;53.574;10.054;2022-08-20T13:49:25;26.60;99.90
14000;DHT22;7075;53.574;10.054;2022-08-20T13:51:50;26.50;99.90
14000;DHT22;7075;53.574;10.054;2022-08-20T13:54:16;27.00;99.90
14000;DHT22;7075;53.574;10.054;2022-08-20T13:56:41;26.80;99.90
14000;DHT22;7075;53.574;10.054;2022-08-20T13:59:07;27.00;99.90
14000;DHT22;7075;53.574;10.054;2022-08-20T14:01:32;27.30;99.90
14000;DHT22;7075;53.574;10.054;2022-08-20T14:03:58;27.40;99.90
14000;DHT22;7075;53.574;10.054;2022-08-20T14:06:24;27.80;99.90
14000;DHT22;7075;53.574;10.054;2022-08-20T14:08:50;28.00;99.90
14000;DHT22;7075;53.574;10.054;2022-08-20T14:11:15;28.10;99.90
14000;DHT22;7075;53.574;10.054;2022-08-20T14:13:42;28.00;99.90
14000;DHT22;7075;53.574;10.054;2022-08-20T14:16:07;28.00;99.90
14000;DHT22;7075;53.574;10.054;2022-08-20T14:18:33;28.10;99.90
14000;DHT22;7075;53.574;10.054;2022-08-20T14:20:59;28.50;99.90
14000;DHT22;7075;53.574;10.054;2022-08-20T14:23:24;28.00;99.90
14000;DHT22;7075;53.574;10.054;2022-08-20T14:25:50;27.90;99.90
14000;DHT22;7075;53.574;10.054;2022-08-20T14:28:19;27.90;99.90
14000;DHT22;7075;53.574;10.054;2022-08-20T14:30:46;27.90;99.90
14000;DHT22;7075;53.574;10.054;2022-08-20T14:33:13;28.10;99.90
14000;DHT22;7075;53.574;10.054;2022-08-20T14:35:38;27.90;99.90
14000;DHT22;7075;53.574;10.054;2022-08-20T14:38:05;27.60;99.90
14000;DHT22;7075;53.574;10.054;2022-08-20T14:40:32;27.50;99.90
14000;DHT22;7075;53.574;10.054;2022-08-20T14:42:58;27.40;99.90
14000;DHT22;7075;53.574;10.054;2022-08-20T14:45:24;27.60;99.90
14000;DHT22;7075;53.574;10.054;2022-08-20T14:47:53;27.70;99.90
14000;DHT22;7075;53.574;10.054;2022-08-20T14:50:28;27.80;99.90
14000;DHT22;7075;53.574;10.054;2022-08-20T14:52:55;27.90;99.90
14000;DHT22;7075;53.574;10.054;2022-08-20T14:55:23;28.20;99.90
14000;DHT22;7075;53.574;10.054;2022-08-20T14:57:49;28.10;99.90
14000;DHT22;7075;53.574;10.054;2022-08-20T15:00:19;27.80;99.90
14000;DHT22;7075;53.574;10.054;2022-08-20T15:02:45;28.00;99.90
14000;DHT22;7075;53.574;10.054;2022-08-20T15:05:12;28.20;99.90
14000;DHT22;7075;53.574;10.054;2022-08-20T15:07:40;28.10;99.90
14000;DHT22;7075;53.574;10.054;2022-08-20T15:10:17;28.00;99.90
14000;DHT22;7075;53.574;10.054;2022-08-20T15:12:43;28.10;99.90
14000;DHT22;7075;53.574;10.054;2022-08-20T15:15:10;27.90;99.90
14000;DHT22;7075;53.574;10.054;2022-08-20T15:17:36;27.90;99.90
14000;DHT22;7075;53.574;10.054;2022-08-20T15:20:08;28.00;99.90
14000;DHT22;7075;53.574;10.054;2022-08-20T15:22:39;28.30;99.90
14000;DHT22;7075;53.574;10.054;2022-08-20T15:25:10;28.10;99.90
14000;DHT22;7075;53.574;10.054;2022-08-20T15:27:36;28.20;99.90
14000;DHT22;7075;53.574;10.054;2022-08-20T15:30:09;28.40;99.90
14000;DHT22;7075;53.574;10.054;2022-08-20T15:32:35;28.80;99.90
14000;DHT22;7075;53.574;10.054;2022-08-20T15:35:01;29.30;99.90
14000;DHT22;7075;53.574;10.054;2022-08-20T15:37:27;29.40;99.40
14000;DHT22;7075;53.574;10.054;2022-08-20T15:39:53;29.10;99.30
14000;DHT22;7075;53.574;10.054;2022-08-20T15:42:20;29.10;99.70
14000;DHT22;7075;53.574;10.054;2022-08-20T15:44:47;28.90;99.90